Time;durP1;ratioP1;P1;durP2;ratioP2;P2;SDS_P1;SDS_P2;PMS_P1;PMS_P2;Temp;Humidity;BMP_temperature;BMP_pressure;BME280_temperature;BME280_humidity;BME280_pressure;Samples;Min_cycle;Max_cycle;Signal;HPM_P1;HPM_P2
2023/09/27 00:01:19;;;;;;;6.40;6.30;;;13.70;99.90;;;;;;5075607;28;20509;-67
2023/09/27 00:03:47;;;;;;;6.23;6.13;;;13.60;99.90;;;;;;5081727;28;20464;-66
2023/09/27 00:06:14;;;;;;;7.03;6.93;;;13.40;99.90;;;;;;5083039;28;20960;-65
2023/09/27 00:08:41;;;;;;;7.30;7.20;;;13.20;99.90;;;;;;5085183;28;20885;-66
2023/09/27 00:11:09;;;;;;;6.67;6.57;;;13.20;99.90;;;;;;5078872;28;20462;-67
2023/09/27 00:13:36;;;;;;;6.77;6.67;;;13.10;99.90;;;;;;5076766;28;21037;-66
2023/09/27 00:16:03;;;;;;;7.30;7.20;;;13.00;99.90;;;;;;5079616;28;20522;-66
2023/09/27 00:18:31;;;;;;;7.03;6.93;;;13.00;99.90;;;;;;5086479;28;20450;-66
2023/09/27 00:20:59;;;;;;;7.90;7.80;;;12.90;99.90;;;;;;5087582;28;20961;-66
2023/09/27 00:23:26;;;;;;;7.40;7.30;;;12.90;99.90;;;;;;5082754;28;20469;-65
2023/09/27 00:25:54;;;;;;;7.77;7.67;;;13.00;99.90;;;;;;5076059;28;20471;-66
2023/09/27 00:28:21;;;;;;;6.93;6.83;;;13.00;99.90;;;;;;5084105;28;20848;-67
2023/09/27 00:30:50;;;;;;;6.57;6.47;;;13.00;99.90;;;;;;5094674;28;20462;-67
2023/09/27 00:33:17;;;;;;;6.80;6.70;;;13.10;99.90;;;;;;5086083;28;20541;-67
2023/09/27 00:35:49;;;;;;;6.33;6.23;;;13.00;99.90;;;;;;5091230;28;20599;-67
2023/09/27 00:38:17;;;;;;;6.40;6.30;;;12.90;99.90;;;;;;5080202;28;20808;-65
2023/09/27 00:40:46;;;;;;;7.23;7.13;;;12.80;99.90;;;;;;5087999;28;20458;-66
2023/09/27 00:43:26;;;;;;;7.17;7.07;;;12.70;99.90;;;;;;5078605;28;20585;-67
2023/09/27 00:45:55;;;;;;;7.33;7.23;;;12.80;99.90;;;;;;5078300;28;20687;-66
2023/09/27 00:48:22;;;;;;;7.03;6.93;;;12.70;99.90;;;;;;5089398;28;20454;-67
2023/09/27 00:50:51;;;;;;;6.90;6.80;;;12.70;99.90;;;;;;5078461;28;20462;-67
2023/09/27 00:53:18;;;;;;;7.43;7.33;;;12.60;99.90;;;;;;5085386;28;20457;-67
2023/09/27 00:55:45;;;;;;;7.13;7.03;;;12.60;99.90;;;;;;5074926;28;20479;-67
2023/09/27 00:58:18;;;;;;;7.13;7.03;;;12.60;99.90;;;;;;5087954;28;20828;-66
2023/09/27 01:00:46;;;;;;;6.60;6.50;;;12.50;99.90;;;;;;5073986;28;20454;-66
2023/09/27 01:03:14;;;;;;;6.00;5.90;;;12.40;99.90;;;;;;5079694;28;20501;-65
2023/09/27 01:05:42;;;;;;;6.40;6.30;;;12.30;99.90;;;;;;5087598;28;20493;-65
2023/09/27 01:08:10;;;;;;;6.43;6.33;;;12.20;99.90;;;;;;5080260;28;20454;-67
2023/09/27 01:10:38;;;;;;;5.50;5.40;;;12.10;99.90;;;;;;5080061;28;21018;-66
2023/09/27 01:13:05;;;;;;;6.70;6.60;;;12.10;99.90;;;;;;5083625;28;20529;-67
2023/09/27 01:15:33;;;;;;;6.67;6.57;;;12.10;99.90;;;;;;5082783;28;20511;-66
2023/09/27 01:18:02;;;;;;;7.10;7.00;;;12.10;99.90;;;;;;5080923;28;20941;-68
2023/09/27 01:20:30;;;;;;;7.10;7.00;;;12.10;99.90;;;;;;5069858;28;20794;-67
2023/09/27 01:23:00;;;;;;;6.80;6.70;;;12.00;99.90;;;;;;5086973;28;20493;-66
2023/09/27 01:25:30;;;;;;;6.23;6.13;;;12.00;99.90;;;;;;5079354;28;20461;-68
2023/09/27 01:27:59;;;;;;;6.53;6.43;;;12.10;99.90;;;;;;5082548;28;20450;-66
2023/09/27 01:30:31;;;;;;;5.63;5.53;;;12.10;99.90;;;;;;5089809;28;20489;-65
2023/09/27 01:32:59;;;;;;;6.30;6.20;;;12.00;99.90;;;;;;5085032;28;20491;-66
2023/09/27 01:35:27;;;;;;;6.40;6.30;;;11.90;99.90;;;;;;5082342;28;20450;-66
2023/09/27 01:37:54;;;;;;;6.63;6.53;;;11.90;99.90;;;;;;5087256;28;20473;-65
2023/09/27 01:40:30;;;;;;;6.83;6.73;;;11.90;99.90;;;;;;5078332;28;20478;-64
2023/09/27 01:42:59;;;;;;;7.00;6.90;;;11.80;99.90;;;;;;5080296;28;20489;-66
2023/09/27 01:45:26;;;;;;;6.40;6.30;;;11.80;99.90;;;;;;5079162;28;20535;-66
2023/09/27 01:47:53;;;;;;;6.80;6.70;;;11.80;99.90;;;;;;5087628;28;20461;-66
2023/09/27 01:50:23;;;;;;;7.07;6.97;;;11.80;99.90;;;;;;5074676;28;20856;-66
2023/09/27 01:52:51;;;;;;;6.83;6.73;;;11.80;99.90;;;;;;5086445;28;20454;-65
2023/09/27 01:55:17;;;;;;;7.13;7.03;;;11.80;99.90;;;;;;5074960;28;20641;-67
2023/09/27 01:57:46;;;;;;;6.80;6.70;;;11.80;99.90;;;;;;5085819;28;20461;-66
2023/09/27 02:00:14;;;;;;;7.40;7.30;;;11.70;99.90;;;;;;5089664;28;20461;-66
2023/09/27 02:02:42;;;;;;;7.13;7.03;;;11.60;99.90;;;;;;5084527;28;20545;-67
2023/09/27 02:05:10;;;;;;;6.93;6.83;;;11.60;99.90;;;;;;5081410;28;20986;-65
2023/09/27 02:07:39;;;;;;;6.77;6.67;;;11.60;99.90;;;;;;5086564;28;20454;-66
2023/09/27 02:10:06;;;;;;;6.80;6.70;;;11.60;99.90;;;;;;5073902;28;20513;-67
2023/09/27 02:12:34;;;;;;;6.87;6.77;;;11.50;99.90;;;;;;5088967;28;20466;-66
2023/09/27 02:15:02;;;;;;;7.20;7.10;;;11.50;99.90;;;;;;5070958;28;20464;-67
2023/09/27 02:17:30;;;;;;;7.80;7.70;;;11.40;99.90;;;;;;5076948;28;20538;-66
2023/09/27 02:19:56;;;;;;;6.80;6.70;;;11.40;99.90;;;;;;5089170;28;20806;-66
2023/09/27 02:22:24;;;;;;;7.23;7.13;;;11.50;99.90;;;;;;5089383;28;20490;-66
2023/09/27 02:24:51;;;;;;;7.63;7.53;;;11.40;99.90;;;;;;5086135;28;20562;-66
2023/09/27 02:27:20;;;;;;;7.60;7.50;;;11.40;99.90;;;;;;5081616;28;20458;-67
2023/09/27 02:29:47;;;;;;;7.80;7.70;;;11.30;99.90;;;;;;5076280;28;20479;-66
2023/09/27 02:32:15;;;;;;;8.13;8.03;;;11.30;99.90;;;;;;5083986;28;20458;-66
2023/09/27 02:34:42;;;;;;;7.77;7.67;;;11.40;99.90;;;;;;5076171;28;20463;-67
2023/09/27 02:37:09;;;;;;;8.40;8.30;;;11.40;99.90;;;;;;5085714;28;20583;-67
2023/09/27 02:39:36;;;;;;;8.20;8.10;;;11.50;99.90;;;;;;5083970;28;20469;-68
2023/09/27 02:42:03;;;;;;;7.47;7.37;;;11.60;99.90;;;;;;5084141;28;20527;-68
2023/09/27 02:44:31;;;;;;;7.30;7.20;;;11.60;99.90;;;;;;5087283;28;20458;-67
2023/09/27 02:46:58;;;;;;;7.17;7.07;;;11.60;99.90;;;;;;5075745;28;20457;-68
2023/09/27 02:49:26;;;;;;;7.30;7.20;;;11.60;99.90;;;;;;5077350;28;20547;-68
2023/09/27 02:51:55;;;;;;;7.13;7.03;;;11.60;99.90;;;;;;5078559;28;20490;-67
2023/09/27 02:54:21;;;;;;;6.90;6.80;;;11.60;99.90;;;;;;5076972;28;20549;-67
2023/09/27 02:56:48;;;;;;;6.97;6.87;;;11.60;99.90;;;;;;5086989;28;20450;-67
2023/09/27 02:59:15;;;;;;;6.70;6.60;;;11.60;99.90;;;;;;5081269;28;20526;-67
2023/09/27 03:01:43;;;;;;;7.10;7.00;;;11.60;99.90;;;;;;5077268;28;20600;-67
2023/09/27 03:04:11;;;;;;;7.20;7.10;;;11.50;99.90;;;;;;5077129;28;21341;-68
2023/09/27 03:06:41;;;;;;;7.87;7.77;;;11.50;99.90;;;;;;5075260;28;20888;-66
2023/09/27 03:09:10;;;;;;;7.37;7.27;;;11.50;99.90;;;;;;5086492;28;20454;-66
2023/09/27 03:11:37;;;;;;;7.83;7.73;;;11.40;99.90;;;;;;5086340;28;20457;-68
2023/09/27 03:14:05;;;;;;;8.33;8.23;;;11.40;99.90;;;;;;5074984;28;20824;-68
2023/09/27 03:16:32;;;;;;;7.83;7.73;;;11.40;99.90;;;;;;5086807;28;20465;-67
2023/09/27 03:19:00;;;;;;;7.83;7.73;;;11.50;99.90;;;;;;5087281;28;20464;-68
2023/09/27 03:21:26;;;;;;;7.93;7.83;;;11.50;99.90;;;;;;5088366;28;20458;-67
2023/09/27 03:23:55;;;;;;;8.00;7.90;;;11.50;99.90;;;;;;5073080;28;20613;-67
2023/09/27 03:26:23;;;;;;;7.80;7.70;;;11.50;99.90;;;;;;5075457;28;20477;-67
2023/09/27 03:28:52;;;;;;;7.23;7.13;;;11.50;99.90;;;;;;5088093;28;20890;-67
2023/09/27 03:31:21;;;;;;;7.67;7.57;;;11.50;99.90;;;;;;5074086;28;20485;-67
2023/09/27 03:33:48;;;;;;;7.73;7.63;;;11.50;99.90;;;;;;5086278;28;20477;-68
2023/09/27 03:36:17;;;;;;;7.40;7.30;;;11.50;99.90;;;;;;5082363;28;20486;-66
2023/09/27 03:38:44;;;;;;;8.50;8.40;;;11.40;99.90;;;;;;5078509;28;20524;-67
2023/09/27 03:41:12;;;;;;;8.30;8.20;;;11.40;99.90;;;;;;5078905;28;20468;-67
2023/09/27 03:43:41;;;;;;;8.10;8.00;;;11.40;99.90;;;;;;5077232;28;20497;-67
2023/09/27 03:46:07;;;;;;;8.03;7.93;;;11.40;99.90;;;;;;5082144;28;20450;-67
2023/09/27 03:48:35;;;;;;;8.33;8.23;;;11.40;99.90;;;;;;5087783;28;20454;-67
2023/09/27 03:51:02;;;;;;;8.60;8.50;;;11.30;99.90;;;;;;5081117;28;20558;-67
2023/09/27 03:53:31;;;;;;;8.43;8.33;;;11.30;99.90;;;;;;5077452;28;20974;-67
2023/09/27 03:55:59;;;;;;;8.40;8.30;;;11.30;99.90;;;;;;5075646;28;20461;-66
2023/09/27 03:58:27;;;;;;;8.20;8.10;;;11.20;99.90;;;;;;5078413;28;20493;-67
2023/09/27 04:00:54;;;;;;;8.27;8.17;;;11.20;99.90;;;;;;5088344;28;20916;-67
2023/09/27 04:03:22;;;;;;;7.90;7.80;;;11.10;99.90;;;;;;5091899;28;20485;-67
2023/09/27 04:05:52;;;;;;;8.20;8.10;;;11.30;99.90;;;;;;5081921;28;20470;-67
2023/09/27 04:08:19;;;;;;;7.83;7.73;;;11.30;99.90;;;;;;5087008;28;20458;-68
2023/09/27 04:10:46;;;;;;;8.10;8.00;;;11.40;99.90;;;;;;5081755;28;20534;-68
2023/09/27 04:13:14;;;;;;;8.00;7.90;;;11.40;99.90;;;;;;5087783;28;20454;-67
2023/09/27 04:15:42;;;;;;;7.50;7.40;;;11.50;99.90;;;;;;5086781;28;20460;-66
2023/09/27 04:18:09;;;;;;;7.20;7.10;;;11.40;99.90;;;;;;5074697;28;20462;-67
2023/09/27 04:20:36;;;;;;;6.40;6.30;;;11.30;99.90;;;;;;5091177;28;20446;-67
2023/09/27 04:23:04;;;;;;;7.17;7.07;;;11.20;99.90;;;;;;5083984;28;20550;-66
2023/09/27 04:25:31;;;;;;;8.13;8.03;;;11.20;99.90;;;;;;5091333;28;20456;-67
2023/09/27 04:27:58;;;;;;;7.37;7.27;;;11.20;99.90;;;;;;5079497;28;20926;-69
2023/09/27 04:30:25;;;;;;;7.70;7.60;;;11.10;99.90;;;;;;5089996;28;20461;-67
2023/09/27 04:32:55;;;;;;;7.20;7.10;;;11.10;99.90;;;;;;5079340;28;20466;-67
2023/09/27 04:35:23;;;;;;;7.10;7.00;;;11.10;99.90;;;;;;5072453;28;20470;-68
2023/09/27 04:37:53;;;;;;;7.93;7.83;;;11.00;99.90;;;;;;5088028;28;20466;-67
2023/09/27 04:40:20;;;;;;;7.93;7.83;;;10.90;99.90;;;;;;5080684;28;20463;-67
2023/09/27 04:42:47;;;;;;;8.17;8.07;;;10.90;99.90;;;;;;5075114;28;20482;-67
2023/09/27 04:45:15;;;;;;;8.03;7.93;;;10.80;99.90;;;;;;5092375;28;20480;-69
2023/09/27 04:47:44;;;;;;;8.27;8.17;;;10.80;99.90;;;;;;5088889;28;20486;-67
2023/09/27 04:50:12;;;;;;;8.13;8.03;;;10.80;99.90;;;;;;5090506;28;20771;-68
2023/09/27 04:52:40;;;;;;;7.70;7.60;;;10.70;99.90;;;;;;5079150;28;20819;-68
2023/09/27 04:55:08;;;;;;;7.60;7.50;;;10.70;99.90;;;;;;5087137;28;20473;-67
2023/09/27 04:57:37;;;;;;;8.13;8.03;;;10.70;99.90;;;;;;5089005;28;20935;-67
2023/09/27 05:00:11;;;;;;;8.40;8.30;;;10.70;99.90;;;;;;5090395;28;20446;-67
2023/09/27 05:02:39;;;;;;;8.53;8.43;;;10.70;99.90;;;;;;5076810;28;20515;-67
2023/09/27 05:05:07;;;;;;;9.10;8.90;;;10.70;99.90;;;;;;5072552;28;20455;-69
2023/09/27 05:07:37;;;;;;;9.00;8.90;;;10.80;99.90;;;;;;5079888;28;20540;-67
2023/09/27 05:10:04;;;;;;;7.97;7.87;;;10.80;99.90;;;;;;5074143;28;20463;-67
2023/09/27 05:12:31;;;;;;;7.77;7.67;;;10.90;99.90;;;;;;5088593;28;20465;-67
2023/09/27 05:14:58;;;;;;;8.63;8.53;;;10.80;99.90;;;;;;5080769;28;20972;-67
2023/09/27 05:17:25;;;;;;;9.17;8.97;;;10.70;99.90;;;;;;5068846;28;20467;-67
2023/09/27 05:19:53;;;;;;;8.60;8.50;;;10.80;99.90;;;;;;5085246;28;20450;-67
2023/09/27 05:22:21;;;;;;;7.33;7.23;;;10.80;99.90;;;;;;5075365;28;20498;-68
2023/09/27 05:24:49;;;;;;;7.70;7.60;;;10.80;99.90;;;;;;5089823;28;20767;-67
2023/09/27 05:27:16;;;;;;;7.33;7.23;;;10.70;99.90;;;;;;5089574;28;20465;-67
2023/09/27 05:29:45;;;;;;;6.97;6.87;;;10.80;99.90;;;;;;5062022;28;20944;-68
2023/09/27 05:32:12;;;;;;;7.27;7.17;;;10.80;99.90;;;;;;5052684;28;20513;-68
2023/09/27 05:34:39;;;;;;;7.53;7.43;;;10.90;99.90;;;;;;5053760;28;20500;-68
2023/09/27 05:37:07;;;;;;;7.60;7.50;;;11.00;99.90;;;;;;5051447;28;21103;-68
2023/09/27 05:39:34;;;;;;;6.77;6.67;;;11.00;99.90;;;;;;5056471;28;20947;-67
2023/09/27 05:42:02;;;;;;;6.90;6.80;;;11.10;99.90;;;;;;5060762;28;20474;-67
2023/09/27 05:44:29;;;;;;;7.30;7.20;;;11.20;99.90;;;;;;5060792;28;20883;-67
2023/09/27 05:46:56;;;;;;;7.23;7.13;;;11.30;99.90;;;;;;5053874;28;20471;-67
2023/09/27 05:49:25;;;;;;;7.50;7.40;;;11.40;99.90;;;;;;5058706;28;20486;-67
2023/09/27 05:51:53;;;;;;;7.53;7.43;;;11.50;99.90;;;;;;5057429;28;20460;-68
2023/09/27 05:54:20;;;;;;;7.53;7.43;;;11.60;99.90;;;;;;5051608;28;20492;-67
2023/09/27 05:56:51;;;;;;;7.03;6.93;;;11.60;99.90;;;;;;5060566;28;20455;-67
2023/09/27 05:59:22;;;;;;;7.47;7.37;;;11.70;99.90;;;;;;5063999;28;20456;-68
2023/09/27 06:01:51;;;;;;;7.70;7.60;;;11.80;99.90;;;;;;5057855;28;20491;-67
2023/09/27 06:04:19;;;;;;;7.70;7.60;;;11.90;99.90;;;;;;5061609;28;20491;-68
2023/09/27 06:06:48;;;;;;;7.87;7.77;;;11.90;99.90;;;;;;5052755;28;20541;-68
2023/09/27 06:09:16;;;;;;;7.73;7.63;;;11.90;99.90;;;;;;5050824;28;21103;-68
2023/09/27 06:11:42;;;;;;;7.70;7.60;;;12.10;99.90;;;;;;5055176;28;20464;-67
2023/09/27 06:14:10;;;;;;;8.40;8.30;;;12.20;99.90;;;;;;5054606;28;20473;-68
2023/09/27 06:16:39;;;;;;;7.80;7.70;;;12.40;99.90;;;;;;5054967;28;20984;-67
2023/09/27 06:19:08;;;;;;;7.50;7.40;;;12.50;99.90;;;;;;5058390;28;20467;-67
2023/09/27 06:21:36;;;;;;;7.23;7.13;;;12.50;99.90;;;;;;5052850;28;20466;-68
2023/09/27 06:24:03;;;;;;;8.70;8.60;;;12.50;99.90;;;;;;5059850;28;20498;-68
2023/09/27 06:26:29;;;;;;;8.37;8.27;;;12.60;99.90;;;;;;5060927;28;20462;-67
2023/09/27 06:28:57;;;;;;;7.97;7.87;;;12.70;99.90;;;;;;5055343;28;20885;-68
2023/09/27 06:31:25;;;;;;;8.07;7.97;;;12.70;99.90;;;;;;5065359;28;20463;-67
2023/09/27 06:33:53;;;;;;;7.67;7.57;;;12.80;99.90;;;;;;5057593;28;20463;-67
2023/09/27 06:36:21;;;;;;;8.00;7.90;;;12.80;99.90;;;;;;5067273;28;20477;-67
2023/09/27 06:38:50;;;;;;;8.40;8.30;;;12.70;99.90;;;;;;5064395;28;20552;-67
2023/09/27 06:41:17;;;;;;;8.70;8.60;;;12.80;99.90;;;;;;5065115;28;20546;-68
2023/09/27 06:43:44;;;;;;;7.80;7.70;;;12.90;99.90;;;;;;5049679;28;20495;-67
2023/09/27 06:46:12;;;;;;;8.33;8.23;;;13.00;99.90;;;;;;5051513;28;20452;-67
2023/09/27 06:48:41;;;;;;;7.83;7.73;;;13.10;99.90;;;;;;5057597;28;20943;-68
2023/09/27 06:51:11;;;;;;;7.40;7.30;;;13.20;99.90;;;;;;5058188;28;20553;-67
2023/09/27 06:53:39;;;;;;;8.50;8.40;;;13.30;99.90;;;;;;5054566;28;20467;-68
2023/09/27 06:56:06;;;;;;;8.40;8.30;;;13.40;99.90;;;;;;5053912;28;20494;-68
2023/09/27 06:58:33;;;;;;;8.00;7.90;;;13.50;99.90;;;;;;5049318;28;20505;-67
2023/09/27 07:01:00;;;;;;;9.70;9.50;;;13.60;99.90;;;;;;5054844;28;20468;-67
2023/09/27 07:03:29;;;;;;;7.80;7.70;;;13.80;99.90;;;;;;5058409;28;20492;-67
2023/09/27 07:05:57;;;;;;;8.40;8.30;;;13.90;99.90;;;;;;5055497;28;20826;-66
2023/09/27 07:08:25;;;;;;;8.00;7.90;;;13.90;99.90;;;;;;5053358;28;21121;-68
2023/09/27 07:10:52;;;;;;;8.43;8.33;;;14.00;99.90;;;;;;5059927;28;20467;-67
2023/09/27 07:13:19;;;;;;;8.97;8.77;;;14.10;99.90;;;;;;5054153;28;20475;-67
2023/09/27 07:15:47;;;;;;;8.03;7.93;;;14.20;99.90;;;;;;5064837;28;20462;-67
2023/09/27 07:18:14;;;;;;;7.30;7.20;;;14.30;99.90;;;;;;5059891;28;20462;-67
2023/09/27 07:20:42;;;;;;;8.10;8.00;;;14.40;99.90;;;;;;5048381;28;20443;-67
2023/09/27 07:23:14;;;;;;;7.30;7.20;;;14.40;99.90;;;;;;5048467;28;20459;-67
2023/09/27 07:25:42;;;;;;;8.93;8.73;;;14.60;99.90;;;;;;5059661;28;20464;-68
2023/09/27 07:28:10;;;;;;;8.27;8.17;;;14.70;99.90;;;;;;5053941;28;21004;-66
2023/09/27 07:30:37;;;;;;;7.63;7.53;;;14.90;99.90;;;;;;5048714;28;20477;-67
2023/09/27 07:33:10;;;;;;;6.80;6.70;;;15.00;99.90;;;;;;5057559;28;20458;-68
2023/09/27 07:35:42;;;;;;;7.60;7.50;;;15.20;99.90;;;;;;5055541;28;20873;-68
2023/09/27 07:38:09;;;;;;;7.90;7.80;;;15.30;99.90;;;;;;5054540;28;20801;-67
2023/09/27 07:40:52;;;;;;;8.83;8.70;;;15.50;99.90;;;;;;5057570;28;20475;-67
2023/09/27 07:43:19;;;;;;;9.20;9.00;;;15.60;99.90;;;;;;5059191;28;20846;-68
2023/09/27 07:45:47;;;;;;;9.50;9.30;;;15.80;99.90;;;;;;5049591;28;20774;-68
2023/09/27 07:48:14;;;;;;;9.87;9.67;;;16.10;99.90;;;;;;5057127;28;20807;-68
2023/09/27 07:50:41;;;;;;;10.27;10.07;;;16.20;99.90;;;;;;5049650;28;20470;-68
2023/09/27 07:53:11;;;;;;;11.23;10.93;;;16.30;99.90;;;;;;5046979;28;20458;-68
2023/09/27 07:55:46;;;;;;;11.13;10.83;;;16.60;99.90;;;;;;5036929;28;20461;-68
2023/09/27 07:58:14;;;;;;;11.40;11.10;;;16.80;99.90;;;;;;5055067;28;20451;-68
2023/09/27 08:00:41;;;;;;;11.90;11.60;;;16.90;99.90;;;;;;5053155;28;20456;-68
2023/09/27 08:03:10;;;;;;;12.30;12.00;;;16.80;99.90;;;;;;5053417;28;20464;-67
2023/09/27 08:05:42;;;;;;;12.20;11.90;;;17.00;99.90;;;;;;5056284;28;20462;-68
2023/09/27 08:08:24;;;;;;;12.80;12.40;;;17.10;99.90;;;;;;5050344;28;20467;-68
2023/09/27 08:10:51;;;;;;;13.23;12.83;;;17.30;99.90;;;;;;5059421;28;20950;-68
2023/09/27 08:13:19;;;;;;;13.60;13.20;;;17.60;99.90;;;;;;5054071;28;20459;-69
2023/09/27 08:15:48;;;;;;;14.20;13.70;;;17.70;99.90;;;;;;5058370;28;20524;-67
2023/09/27 08:18:17;;;;;;;14.20;13.70;;;17.60;99.90;;;;;;5053148;28;20524;-68
2023/09/27 08:20:44;;;;;;;14.30;13.80;;;17.70;99.90;;;;;;5053424;28;20470;-68
2023/09/27 08:23:12;;;;;;;14.23;13.73;;;17.70;99.90;;;;;;5063756;28;20470;-67
2023/09/27 08:25:39;;;;;;;14.10;13.60;;;17.70;99.90;;;;;;5053202;28;20487;-68
2023/09/27 08:28:09;;;;;;;14.73;14.23;;;17.70;99.90;;;;;;5053192;28;20468;-69
2023/09/27 08:30:37;;;;;;;14.50;14.00;;;17.60;99.90;;;;;;5054786;28;20495;-68
2023/09/27 08:33:04;;;;;;;14.00;13.50;;;17.60;99.90;;;;;;5056410;28;20467;-68
2023/09/27 08:35:31;;;;;;;14.23;13.73;;;17.60;99.90;;;;;;5058536;28;20470;-68
2023/09/27 08:37:57;;;;;;;14.10;13.60;;;17.80;99.90;;;;;;5058297;28;20451;-68
2023/09/27 08:40:24;;;;;;;13.90;13.50;;;17.90;99.90;;;;;;5056429;28;20459;-68
2023/09/27 08:42:57;;;;;;;14.20;13.70;;;18.20;99.90;;;;;;5059874;28;20462;-68
2023/09/27 08:45:25;;;;;;;14.10;13.60;;;18.50;99.90;;;;;;5051536;28;20579;-68
2023/09/27 08:47:55;;;;;;;14.33;13.83;;;18.60;99.90;;;;;;5058142;28;20572;-68
2023/09/27 08:50:22;;;;;;;14.17;13.67;;;18.60;99.90;;;;;;5060059;28;20986;-67
2023/09/27 08:52:50;;;;;;;14.23;13.73;;;18.60;99.90;;;;;;5063822;28;20464;-68
2023/09/27 08:55:18;;;;;;;13.80;13.40;;;18.80;99.90;;;;;;5064895;28;20462;-69
2023/09/27 08:57:47;;;;;;;14.53;14.03;;;19.20;99.90;;;;;;5064319;28;20464;-68
2023/09/27 09:00:19;;;;;;;14.27;13.77;;;19.60;99.90;;;;;;5060600;28;20454;-69
2023/09/27 09:02:49;;;;;;;14.30;13.80;;;19.80;99.90;;;;;;5057251;28;20472;-70
2023/09/27 09:05:19;;;;;;;14.33;13.83;;;19.70;99.90;;;;;;5058421;28;20495;-68
2023/09/27 09:07:46;;;;;;;14.40;13.90;;;19.80;99.90;;;;;;5061096;28;20500;-68
2023/09/27 09:10:15;;;;;;;14.53;14.03;;;19.90;99.90;;;;;;5055912;28;20452;-68
2023/09/27 09:12:42;;;;;;;13.83;13.43;;;20.10;99.90;;;;;;5066046;28;20443;-69
2023/09/27 09:15:14;;;;;;;14.57;14.07;;;20.20;99.90;;;;;;5052972;28;20470;-68
2023/09/27 09:17:47;;;;;;;14.60;14.10;;;20.30;99.90;;;;;;5063301;28;20462;-69
2023/09/27 09:20:21;;;;;;;14.30;13.80;;;20.40;99.90;;;;;;5057397;28;20941;-68
2023/09/27 09:22:50;;;;;;;14.73;14.23;;;20.40;99.90;;;;;;5056521;28;20528;-68
2023/09/27 09:25:17;;;;;;;14.30;13.80;;;20.50;99.90;;;;;;5065488;28;20499;-68
2023/09/27 09:27:45;;;;;;;14.70;14.20;;;20.50;99.90;;;;;;5057905;28;20729;-69
2023/09/27 09:30:12;;;;;;;13.90;13.50;;;20.50;99.90;;;;;;5058517;28;20489;-68
2023/09/27 09:32:50;;;;;;;14.10;13.70;;;20.60;99.90;;;;;;5063068;28;20489;-69
2023/09/27 09:35:31;;;;;;;13.70;13.30;;;20.70;99.90;;;;;;5056539;28;20455;-69
2023/09/27 09:37:59;;;;;;;13.60;13.20;;;20.90;99.90;;;;;;5056998;28;20464;-69
2023/09/27 09:40:26;;;;;;;14.00;13.60;;;21.30;99.90;;;;;;5063149;28;20848;-69
2023/09/27 09:42:53;;;;;;;13.87;13.47;;;21.90;99.90;;;;;;5046310;28;20466;-70
2023/09/27 09:45:21;;;;;;;14.37;13.87;;;22.80;99.90;;;;;;5067767;28;20470;-69
2023/09/27 09:47:50;;;;;;;14.20;13.80;;;23.60;99.90;;;;;;5064995;28;20532;-71
2023/09/27 09:50:18;;;;;;;14.40;13.90;;;24.30;99.90;;;;;;5055215;28;20474;-68
2023/09/27 09:52:57;;;;;;;14.00;13.60;;;25.30;99.90;;;;;;5058589;28;20506;-68
2023/09/27 09:55:25;;;;;;;14.87;14.37;;;26.10;99.90;;;;;;5047412;28;20566;-70
2023/09/27 09:57:59;;;;;;;14.67;14.17;;;26.40;99.90;;;;;;5059147;28;20470;-70
2023/09/27 10:00:27;;;;;;;14.33;13.83;;;26.40;99.90;;;;;;5057586;28;20455;-68
2023/09/27 10:03:02;;;;;;;15.07;14.57;;;26.50;99.90;;;;;;5061399;28;20475;-68
2023/09/27 10:05:36;;;;;;;14.97;14.47;;;26.50;99.90;;;;;;5055822;28;20487;-68
2023/09/27 10:08:05;;;;;;;14.37;13.87;;;26.90;99.90;;;;;;5057644;28;20821;-68
2023/09/27 10:10:33;;;;;;;14.77;14.27;;;27.40;99.90;;;;;;5064081;28;20961;-68
2023/09/27 10:13:03;;;;;;;15.47;14.97;;;27.70;99.90;;;;;;5058047;28;20800;-70
2023/09/27 10:15:33;;;;;;;14.50;14.00;;;27.50;99.90;;;;;;5064227;28;20791;-68
2023/09/27 10:18:33;;;;;;;15.27;14.77;;;27.30;99.90;;;;;;5060532;28;20447;-68
2023/09/27 10:21:06;;;;;;;15.50;15.00;;;27.80;99.90;;;;;;5047112;28;20578;-68
2023/09/27 10:23:58;;;;;;;15.33;14.83;;;28.30;99.90;;;;;;5064882;28;20466;-68
2023/09/27 10:26:34;;;;;;;15.13;14.63;;;28.80;99.90;;;;;;5055484;28;20459;-71
2023/09/27 10:29:13;;;;;;;15.77;15.27;;;28.90;99.90;;;;;;5060132;28;20486;-70
2023/09/27 10:32:22;;;;;;;15.50;15.00;;;29.10;99.90;;;;;;5051416;28;20477;-68
2023/09/27 10:34:51;;;;;;;15.70;15.20;;;29.20;99.90;;;;;;5056107;28;20945;-69
2023/09/27 10:37:56;;;;;;;15.90;15.40;;;29.40;99.90;;;;;;5056315;28;20771;-69
2023/09/27 10:40:25;;;;;;;15.93;15.43;;;29.90;99.90;;;;;;5055043;28;20951;-69
2023/09/27 10:42:52;;;;;;;15.50;15.00;;;30.40;99.90;;;;;;5057819;28;20740;-68
2023/09/27 10:45:20;;;;;;;15.87;15.37;;;30.00;99.90;;;;;;5058875;28;20526;-68
2023/09/27 10:47:49;;;;;;;15.60;15.10;;;29.50;99.90;;;;;;5056168;28;20814;-68
2023/09/27 10:50:27;;;;;;;15.93;15.43;;;29.10;99.90;;;;;;5063973;28;20869;-68
2023/09/27 10:52:55;;;;;;;15.87;15.37;;;29.00;99.90;;;;;;5051303;28;20474;-68
2023/09/27 10:55:23;;;;;;;15.83;15.33;;;29.10;99.90;;;;;;5047381;28;20545;-67
2023/09/27 10:57:51;;;;;;;15.77;15.27;;;29.00;99.90;;;;;;5060445;28;20482;-70
2023/09/27 11:00:21;;;;;;;15.73;15.23;;;28.60;99.90;;;;;;5052079;28;20467;-70
2023/09/27 11:02:48;;;;;;;14.87;14.43;;;28.60;99.90;;;;;;5051068;28;20470;-70
2023/09/27 11:05:23;;;;;;;15.73;15.23;;;28.60;99.90;;;;;;5056703;28;20490;-69
2023/09/27 11:07:51;;;;;;;15.60;15.10;;;28.50;99.90;;;;;;5057555;28;20463;-70
2023/09/27 11:10:31;;;;;;;15.57;15.07;;;28.70;99.90;;;;;;5057285;28;20550;-68
2023/09/27 11:13:09;;;;;;;15.20;14.70;;;28.90;99.90;;;;;;5058747;28;20853;-68
2023/09/27 11:15:36;;;;;;;16.17;15.67;;;29.50;99.90;;;;;;5053461;28;20896;-68
2023/09/27 11:18:04;;;;;;;15.60;15.10;;;29.30;99.90;;;;;;5062678;28;20482;-68
2023/09/27 11:20:31;;;;;;;15.50;15.00;;;28.90;99.90;;;;;;5054982;28;20478;-67
2023/09/27 11:22:58;;;;;;;15.80;15.30;;;29.20;99.90;;;;;;5044748;28;20498;-67
2023/09/27 11:25:30;;;;;;;16.10;15.60;;;28.80;99.90;;;;;;5045271;28;20483;-67
2023/09/27 11:27:57;;;;;;;15.27;14.77;;;28.20;99.90;;;;;;5052878;28;20958;-68
2023/09/27 11:30:30;;;;;;;15.00;14.50;;;27.80;99.90;;;;;;5087277;28;20445;-68
2023/09/27 11:32:57;;;;;;;14.90;14.40;;;27.90;99.90;;;;;;5081648;28;20451;-67
2023/09/27 11:35:25;;;;;;;15.77;15.27;;;28.30;99.90;;;;;;5072751;28;20463;-68
2023/09/27 11:38:10;;;;;;;14.97;14.47;;;28.40;99.90;;;;;;5073588;28;20489;-69
2023/09/27 11:40:38;;;;;;;14.60;14.20;;;28.30;99.90;;;;;;5071208;28;20462;-68
2023/09/27 11:43:05;;;;;;;14.93;14.47;;;28.20;99.90;;;;;;5077978;28;20609;-69
2023/09/27 11:45:43;;;;;;;15.00;14.50;;;28.80;99.90;;;;;;5078029;28;20877;-67
2023/09/27 11:48:10;;;;;;;14.87;14.40;;;29.40;99.90;;;;;;5075458;28;20466;-67
2023/09/27 11:50:38;;;;;;;15.00;14.50;;;30.30;99.90;;;;;;5085908;28;21190;-67
2023/09/27 11:53:05;;;;;;;14.80;14.40;;;30.70;99.90;;;;;;5076938;28;20461;-66
2023/09/27 11:55:31;;;;;;;14.70;14.30;;;30.60;99.90;;;;;;5073635;28;20467;-67
2023/09/27 11:58:01;;;;;;;15.60;15.10;;;30.40;99.90;;;;;;5072921;28;20503;-68
2023/09/27 12:00:29;;;;;;;14.93;14.43;;;31.10;99.90;;;;;;5073152;28;20507;-67
2023/09/27 12:02:56;;;;;;;14.60;14.20;;;31.70;99.90;;;;;;5065188;28;20458;-67
2023/09/27 12:05:23;;;;;;;15.20;14.70;;;32.50;99.90;;;;;;5080659;28;20490;-67
2023/09/27 12:07:51;;;;;;;15.23;14.73;;;33.40;99.90;;;;;;5063091;28;20459;-67
2023/09/27 12:10:20;;;;;;;15.47;14.97;;;33.10;99.90;;;;;;5055892;28;20540;-67
2023/09/27 12:12:48;;;;;;;15.83;15.33;;;33.20;99.90;;;;;;5072380;28;20462;-67
2023/09/27 12:15:16;;;;;;;14.83;14.40;;;32.70;99.90;;;;;;5073797;28;20458;-67
2023/09/27 12:17:43;;;;;;;15.10;14.60;;;32.00;99.90;;;;;;5068427;28;20471;-69
2023/09/27 12:20:13;;;;;;;15.20;14.70;;;31.20;99.90;;;;;;5085382;28;20485;-69
2023/09/27 12:22:40;;;;;;;14.70;14.30;;;30.80;99.90;;;;;;5081477;28;20454;-68
2023/09/27 12:25:07;;;;;;;14.70;14.30;;;30.90;99.90;;;;;;5086655;28;20522;-66
2023/09/27 12:27:35;;;;;;;15.10;14.60;;;31.30;99.90;;;;;;5082655;28;20824;-67
2023/09/27 12:30:03;;;;;;;15.30;14.80;;;31.20;99.90;;;;;;5091513;28;20482;-67
2023/09/27 12:32:31;;;;;;;14.27;13.87;;;31.00;99.90;;;;;;5077958;28;20445;-65
2023/09/27 12:34:58;;;;;;;14.53;14.13;;;31.00;99.90;;;;;;5082034;28;20463;-66
2023/09/27 12:37:24;;;;;;;15.20;14.70;;;31.10;99.90;;;;;;5079145;28;20474;-66
2023/09/27 12:39:51;;;;;;;15.37;14.87;;;31.30;99.90;;;;;;5079187;28;20476;-66
2023/09/27 12:42:18;;;;;;;15.13;14.63;;;31.50;99.90;;;;;;5087044;28;20454;-68
2023/09/27 12:44:46;;;;;;;15.17;14.67;;;31.80;99.90;;;;;;5081509;28;20453;-67
2023/09/27 12:47:14;;;;;;;15.53;15.03;;;31.90;99.90;;;;;;5081524;28;20504;-67